Terminal Aerodrome Forecast
Issued by NWS

Home | Current Version | Previous Version | Text Only | Print | Product List | Glossary On
Versions: 1 2 3 4 5 6 7 8 9 10 11 12 13 14
000
FTUS45 KRIW 212300
TAFCOD
TAF
KCOD 212327Z 2200/2224 14007KT P6SM SCT100 BKN200
     FM221100 18006KT P6SM VCSH BKN100
     FM221500 24010KT P6SM SCT080 SCT150
     FM222100 VRB10G18KT P6SM VCTS FEW050CB BKN100
      AMD LTD TO CLD VIS AND WIND=

USA.gov is the U.S. government's official web portal to all federal, state and local government web resources and services.